createdAt,value
2019-01-25T00:01:14.447Z,92.47
2019-01-25T00:03:43.583Z,90.23
2019-01-25T00:06:13.097Z,90.60
2019-01-25T00:11:17.983Z,83.70
2019-01-25T00:13:48.103Z,94.30
2019-01-25T00:16:17.139Z,89.27
2019-01-25T00:18:46.557Z,89.50
2019-01-25T00:21:46.302Z,91.77
2019-01-25T00:24:16.470Z,94.67
2019-01-25T00:26:45.936Z,91.90
2019-01-25T00:29:15.073Z,91.67
2019-01-25T00:31:44.343Z,95.43
2019-01-25T00:34:13.498Z,86.87
2019-01-25T00:36:43.423Z,101.13
2019-01-25T00:39:12.777Z,94.63
2019-01-25T00:41:42.185Z,95.33
2019-01-25T00:45:14.340Z,96.07
2019-01-25T00:47:43.664Z,107.47
2019-01-25T00:50:16.262Z,100.37
2019-01-25T00:52:45.403Z,102.33
2019-01-25T00:55:14.503Z,98.93
2019-01-25T00:57:44.283Z,108.33
2019-01-25T01:00:34.681Z,114.87
2019-01-25T01:03:04.695Z,121.53
2019-01-25T01:05:37.483Z,120.27
2019-01-25T01:08:06.933Z,112.23
2019-01-25T01:10:35.964Z,117.40
2019-01-25T01:13:05.956Z,110.43
2019-01-25T01:15:35.367Z,123.03
2019-01-25T01:18:08.677Z,124.63
2019-01-25T01:20:38.515Z,134.83
2019-01-25T01:23:07.631Z,128.23
2019-01-25T01:26:34.316Z,130.67
2019-01-25T01:29:03.451Z,115.73
2019-01-25T01:31:32.830Z,133.43
2019-01-25T01:34:04.156Z,115.40
2019-01-25T01:36:33.153Z,137.47
2019-01-25T01:39:04.105Z,143.50
2019-01-25T01:41:33.469Z,143.17
2019-01-25T01:44:02.515Z,138.00
2019-01-25T01:46:31.697Z,148.97
2019-01-25T01:49:02.165Z,142.43
2019-01-25T01:51:31.434Z,155.57
2019-01-25T01:54:07.188Z,153.87
2019-01-25T01:56:36.516Z,145.80
2019-01-25T01:59:05.629Z,160.47
2019-01-25T02:01:35.306Z,157.27
2019-01-25T02:04:07.675Z,167.97
2019-01-25T02:06:36.971Z,169.03
2019-01-25T02:09:07.995Z,169.03
2019-01-25T02:11:37.095Z,169.23
2019-01-25T02:17:18.005Z,172.30
2019-01-25T02:19:47.068Z,181.30
2019-01-25T02:22:16.023Z,168.80
2019-01-25T02:24:46.524Z,151.93
2019-01-25T02:27:15.556Z,185.80
2019-01-25T02:29:51.597Z,149.73
2019-01-25T02:32:20.617Z,171.90
2019-01-25T02:34:49.637Z,151.10
2019-01-25T02:37:19.002Z,159.27
2019-01-25T02:39:48.368Z,190.50
2019-01-25T02:42:17.459Z,155.40
2019-01-25T02:44:46.708Z,162.10
2019-01-25T02:47:15.802Z,149.10
2019-01-25T02:49:46.516Z,162.30
2019-01-25T02:52:15.468Z,174.17
2019-01-25T02:54:44.853Z,163.93
2019-01-25T02:57:14.112Z,145.77
2019-01-25T02:59:44.010Z,134.63
2019-01-25T03:02:13.684Z,153.90
2019-01-25T03:04:42.718Z,138.23
2019-01-25T03:07:12.589Z,143.07
2019-01-25T03:09:45.694Z,122.20
2019-01-25T03:12:17.708Z,123.27
2019-01-25T03:14:47.612Z,135.63
2019-01-25T03:17:18.438Z,135.63
2019-01-25T03:19:48.184Z,140.00
2019-01-25T03:22:17.456Z,134.27
2019-01-25T03:24:46.409Z,127.67
2019-01-25T03:27:15.653Z,138.10
2019-01-25T03:29:45.152Z,135.30
2019-01-25T03:32:14.459Z,129.57
2019-01-25T03:34:45.089Z,133.83
2019-01-25T03:37:14.173Z,149.47
2019-01-25T03:39:43.496Z,135.03
2019-01-25T03:42:12.542Z,135.30
2019-01-25T03:44:41.697Z,131.83
2019-01-25T03:47:10.805Z,146.73
2019-01-25T03:49:46.178Z,139.30
2019-01-25T03:52:15.495Z,148.73
2019-01-25T03:54:44.543Z,144.23
2019-01-25T03:57:14.351Z,139.83
2019-01-25T03:59:43.783Z,157.73
2019-01-25T04:02:12.822Z,154.23
2019-01-25T04:04:42.537Z,133.53
2019-01-25T04:07:11.573Z,138.93
2019-01-25T04:09:40.686Z,135.40
2019-01-25T04:12:09.727Z,133.37
2019-01-25T04:14:38.741Z,137.47
2019-01-25T04:17:09.598Z,141.23
2019-01-25T04:19:38.905Z,133.33
2019-01-25T04:22:07.987Z,132.10
2019-01-25T04:24:37.672Z,147.80
2019-01-25T04:27:07.572Z,141.63
2019-01-25T04:32:10.992Z,155.23
2019-01-25T04:34:40.096Z,156.43
2019-01-25T04:37:09.169Z,144.73
2019-01-25T04:39:38.152Z,149.07
2019-01-25T04:42:07.560Z,147.43
2019-01-25T04:44:37.420Z,146.73
2019-01-25T04:47:06.813Z,154.90
2019-01-25T04:49:37.906Z,143.20
2019-01-25T04:52:13.083Z,147.73
2019-01-25T04:54:42.127Z,148.10
2019-01-25T04:57:11.234Z,135.30
2019-01-25T04:59:40.746Z,145.93
2019-01-25T05:02:10.050Z,145.47
2019-01-25T05:04:38.953Z,151.93
2019-01-25T05:07:08.173Z,148.87
2019-01-25T05:10:13.671Z,150.10
2019-01-25T05:12:43.668Z,145.33
2019-01-25T05:15:14.670Z,151.83
2019-01-25T05:17:46.132Z,128.43
2019-01-25T05:20:15.012Z,150.47
2019-01-25T05:22:44.295Z,134.40
2019-01-25T05:25:18.286Z,135.07
2019-01-25T05:27:47.218Z,136.17
2019-01-25T05:30:18.044Z,142.80
2019-01-25T05:32:46.946Z,124.60
2019-01-25T05:35:16.435Z,127.53
2019-01-25T05:37:45.338Z,139.77
2019-01-25T05:40:24.537Z,127.60
2019-01-25T05:42:53.773Z,140.47
2019-01-25T05:45:22.775Z,145.47
2019-01-25T05:47:53.771Z,173.13
2019-01-25T05:50:22.701Z,156.07
2019-01-25T05:52:51.928Z,151.23
2019-01-25T05:55:22.430Z,159.40
2019-01-25T05:58:02.679Z,153.37
2019-01-25T06:00:34.666Z,155.70
2019-01-25T06:03:08.973Z,155.57
2019-01-25T06:05:37.944Z,157.60
2019-01-25T06:08:29.110Z,168.17
2019-01-25T06:11:02.326Z,182.97
2019-01-25T06:13:31.566Z,155.90
2019-01-25T06:16:00.572Z,160.47
2019-01-25T06:18:31.283Z,162.17
2019-01-25T06:21:02.518Z,157.47
2019-01-25T06:23:31.439Z,172.23
2019-01-25T06:26:01.082Z,162.33
2019-01-25T06:28:30.156Z,198.97
2019-01-25T06:30:59.670Z,163.77
2019-01-25T06:33:29.892Z,175.60
2019-01-25T06:35:59.574Z,184.53
2019-01-25T06:38:28.475Z,208.80
2019-01-25T06:40:57.485Z,226.40
2019-01-25T06:43:26.519Z,219.37
2019-01-25T06:45:55.579Z,203.87
2019-01-25T06:48:24.968Z,193.17
2019-01-25T06:50:54.801Z,206.87
2019-01-25T06:53:25.086Z,208.93
2019-01-25T06:55:54.304Z,209.33
2019-01-25T06:58:49.640Z,217.47
2019-01-25T07:01:37.041Z,214.17
2019-01-25T07:04:06.622Z,199.73
2019-01-25T07:06:35.874Z,223.37
2019-01-25T07:09:09.285Z,204.97
2019-01-25T07:11:42.298Z,227.33
2019-01-25T07:14:08.987Z,230.23
2019-01-25T07:16:37.906Z,237.83
2019-01-25T07:19:06.862Z,232.90
2019-01-25T07:21:35.837Z,264.93
2019-01-25T07:24:06.012Z,261.67
2019-01-25T07:26:35.868Z,249.03
2019-01-25T07:29:05.615Z,249.90
2019-01-25T07:31:34.610Z,263.70
2019-01-25T07:34:03.595Z,265.93
2019-01-25T07:36:32.996Z,246.50
2019-01-25T07:39:08.443Z,262.57
2019-01-25T07:41:40.435Z,245.47
2019-01-25T07:44:09.697Z,232.57
2019-01-25T07:46:41.916Z,237.60
2019-01-25T07:49:10.833Z,248.47
2019-01-25T07:51:39.860Z,248.63
2019-01-25T07:54:08.915Z,254.83
2019-01-25T07:56:37.964Z,255.20
2019-01-25T07:59:07.330Z,265.63
2019-01-25T08:01:37.509Z,263.73
2019-01-25T08:04:09.744Z,271.73
2019-01-25T08:06:38.984Z,240.57
2019-01-25T08:09:09.615Z,234.50
2019-01-25T08:11:40.275Z,257.60
2019-01-25T08:14:12.899Z,250.30
2019-01-25T08:16:41.935Z,261.07
2019-01-25T08:19:11.460Z,271.10
2019-01-25T08:21:42.229Z,273.20
2019-01-25T08:24:11.158Z,268.20
2019-01-25T08:26:40.006Z,253.47
2019-01-25T08:29:09.012Z,269.53
2019-01-25T08:31:39.163Z,267.33
2019-01-25T08:34:08.252Z,277.23
2019-01-25T08:36:37.496Z,287.20
2019-01-25T08:39:09.588Z,273.40
2019-01-25T08:41:38.625Z,267.20
2019-01-25T08:44:07.654Z,257.63
2019-01-25T08:46:36.603Z,274.17
2019-01-25T08:49:06.094Z,279.47
2019-01-25T08:51:38.567Z,271.63
2019-01-25T08:54:09.080Z,295.70
2019-01-25T08:56:38.397Z,285.07
2019-01-25T08:59:07.658Z,281.97
2019-01-25T09:01:36.720Z,302.57
2019-01-25T09:04:10.764Z,286.43
2019-01-25T09:06:39.725Z,257.10
2019-01-25T09:09:11.155Z,258.30
2019-01-25T09:11:43.976Z,277.23
2019-01-25T09:14:12.927Z,266.23
2019-01-25T09:16:41.926Z,251.43
2019-01-25T09:19:10.862Z,241.33
2019-01-25T09:22:10.292Z,256.83
2019-01-25T09:24:39.657Z,242.50
2019-01-25T09:27:09.933Z,246.67
2019-01-25T09:29:38.863Z,234.60
2019-01-25T09:32:07.903Z,248.03
2019-01-25T09:34:40.996Z,236.43
2019-01-25T09:37:10.290Z,207.93
2019-01-25T09:39:39.491Z,200.90
2019-01-25T09:42:08.499Z,216.33
2019-01-25T09:44:38.163Z,206.03
2019-01-25T09:47:07.097Z,207.80
2019-01-25T09:49:38.555Z,206.97
2019-01-25T09:52:07.879Z,177.83
2019-01-25T09:54:37.157Z,153.27
2019-01-25T09:57:10.932Z,163.40
2019-01-25T09:59:40.330Z,138.30
2019-01-25T10:02:09.361Z,142.53
2019-01-25T10:04:39.145Z,136.97
2019-01-25T10:07:08.402Z,126.50
2019-01-25T10:09:37.304Z,108.93
2019-01-25T10:12:06.644Z,113.70
2019-01-25T10:14:38.021Z,102.83
2019-01-25T10:17:07.756Z,99.43
2019-01-25T10:19:40.323Z,89.67
2019-01-25T10:22:12.580Z,92.93
2019-01-25T10:24:41.818Z,96.87
2019-01-25T10:27:11.410Z,88.10
2019-01-25T10:29:43.632Z,82.57
2019-01-25T10:32:14.180Z,84.77
2019-01-25T10:34:43.493Z,75.50
2019-01-25T10:37:12.542Z,72.03
2019-01-25T10:39:41.868Z,75.37
2019-01-25T10:42:11.522Z,77.30
2019-01-25T10:44:41.411Z,76.90
2019-01-25T10:47:10.325Z,83.43
2019-01-25T10:49:42.300Z,83.63
2019-01-25T10:52:12.654Z,86.97
2019-01-25T10:54:45.103Z,97.20
2019-01-25T10:57:14.081Z,99.70
2019-01-25T10:59:43.006Z,96.30
2019-01-25T11:02:12.225Z,97.10
2019-01-25T11:04:41.930Z,99.73
2019-01-25T11:07:11.026Z,104.70
2019-01-25T11:09:39.939Z,97.67
2019-01-25T11:12:08.966Z,119.13
2019-01-25T11:14:37.985Z,105.13
2019-01-25T11:17:07.034Z,116.93
2019-01-25T11:19:36.894Z,125.23
2019-01-25T11:22:05.831Z,117.13
2019-01-25T11:24:34.818Z,120.50
2019-01-25T11:27:03.838Z,122.40
2019-01-25T11:29:32.968Z,121.43
2019-01-25T11:32:04.299Z,123.53
2019-01-25T11:34:37.001Z,114.43
2019-01-25T11:37:05.982Z,131.20
2019-01-25T11:39:35.190Z,111.10
2019-01-25T11:42:04.542Z,112.83
2019-01-25T11:44:36.547Z,119.63
2019-01-25T11:47:05.990Z,119.37
2019-01-25T11:49:38.000Z,113.23
2019-01-25T11:52:06.920Z,113.97
2019-01-25T11:54:36.950Z,112.77
2019-01-25T11:57:06.732Z,113.73
2019-01-25T12:02:10.384Z,113.47
2019-01-25T12:04:39.410Z,103.90
2019-01-25T12:07:08.585Z,113.47
2019-01-25T12:09:37.579Z,112.43
2019-01-25T12:12:07.146Z,109.60
2019-01-25T12:14:36.362Z,97.93
2019-01-25T12:17:05.921Z,87.30
2019-01-25T12:19:35.114Z,89.53
2019-01-25T12:22:04.649Z,106.67
2019-01-25T12:24:34.484Z,91.77
2019-01-25T12:27:03.687Z,89.20
2019-01-25T12:29:32.846Z,78.13
2019-01-25T12:32:02.091Z,81.70
2019-01-25T12:34:30.976Z,82.83
2019-01-25T12:37:04.612Z,71.53
2019-01-25T12:39:32.326Z,82.13
2019-01-25T12:42:01.384Z,80.40
2019-01-25T12:44:33.322Z,78.43
2019-01-25T12:47:02.265Z,88.60
2019-01-25T12:49:32.010Z,87.93
2019-01-25T12:52:08.569Z,81.20
2019-01-25T12:54:37.971Z,83.00
2019-01-25T12:57:07.010Z,88.37
2019-01-25T12:59:36.277Z,80.43
2019-01-25T13:02:05.627Z,79.83
2019-01-25T13:04:41.394Z,93.63
2019-01-25T13:07:11.187Z,91.57
2019-01-25T13:09:41.954Z,80.50
2019-01-25T13:12:11.286Z,85.47
2019-01-25T13:14:41.495Z,87.67
2019-01-25T13:17:10.906Z,93.60
2019-01-25T13:19:41.517Z,81.93
2019-01-25T13:22:10.496Z,87.03
2019-01-25T13:24:39.359Z,78.13
2019-01-25T13:27:12.296Z,89.77
2019-01-25T13:29:41.519Z,85.27
2019-01-25T13:32:14.540Z,82.90
2019-01-25T13:34:42.273Z,75.53
2019-01-25T13:37:11.293Z,90.20
2019-01-25T13:39:40.316Z,77.93
2019-01-25T13:42:09.543Z,87.37
2019-01-25T13:44:38.459Z,85.83
2019-01-25T13:47:07.445Z,94.70
2019-01-25T13:49:36.404Z,74.97
2019-01-25T13:52:06.670Z,80.00
2019-01-25T13:54:35.859Z,83.53
2019-01-25T13:57:04.775Z,87.57
2019-01-25T13:59:34.518Z,96.37
2019-01-25T14:02:03.510Z,82.80
2019-01-25T14:04:36.986Z,93.27
2019-01-25T14:07:06.006Z,91.83
2019-01-25T14:09:34.877Z,100.47
2019-01-25T14:12:04.626Z,107.63
2019-01-25T14:14:33.637Z,100.73
2019-01-25T14:17:02.647Z,94.63
2019-01-25T14:19:31.580Z,110.57
2019-01-25T14:22:03.752Z,103.03
2019-01-25T14:24:35.875Z,112.73
2019-01-25T14:27:05.275Z,112.60
2019-01-25T14:29:34.922Z,116.03
2019-01-25T14:32:04.526Z,129.23
2019-01-25T14:34:33.462Z,121.93
2019-01-25T14:37:03.227Z,114.63
2019-01-25T14:39:32.210Z,115.13
2019-01-25T14:42:01.438Z,122.97
2019-01-25T14:44:36.795Z,123.83
2019-01-25T14:47:05.697Z,126.10
2019-01-25T14:49:38.272Z,110.60
2019-01-25T14:52:07.270Z,118.03
2019-01-25T14:54:42.299Z,125.07
2019-01-25T14:57:14.599Z,121.47
2019-01-25T14:59:45.876Z,116.77
2019-01-25T15:02:18.098Z,117.67
2019-01-25T15:04:47.262Z,125.43
2019-01-25T15:07:16.407Z,123.73
2019-01-25T15:12:20.754Z,82.23
2019-01-25T15:14:50.462Z,95.30
2019-01-25T15:17:21.535Z,75.50
2019-01-25T15:19:50.462Z,69.17
2019-01-25T15:22:21.000Z,68.87
2019-01-25T15:24:53.024Z,80.33
2019-01-25T15:27:22.699Z,76.00
2019-01-25T15:29:52.041Z,77.63
2019-01-25T15:32:24.145Z,74.23
2019-01-25T15:34:54.818Z,77.97
2019-01-25T15:37:23.892Z,74.17
2019-01-25T15:39:53.299Z,78.87
2019-01-25T15:42:22.697Z,70.73
2019-01-25T15:44:54.092Z,80.80
2019-01-25T15:47:23.446Z,77.90
2019-01-25T15:49:53.809Z,69.27
2019-01-25T15:55:01.442Z,70.60
2019-01-25T15:57:33.738Z,63.60
2019-01-25T16:00:02.819Z,72.73
2019-01-25T16:02:32.236Z,71.37
2019-01-25T16:05:13.011Z,74.17
2019-01-25T16:07:49.852Z,66.90
2019-01-25T16:10:21.121Z,70.80
2019-01-25T16:12:52.055Z,70.57
2019-01-25T16:15:23.886Z,67.97
2019-01-25T16:17:53.216Z,69.03
2019-01-25T16:20:22.242Z,52.93
2019-01-25T16:22:51.745Z,57.53
2019-01-25T16:25:23.460Z,61.60
2019-01-25T16:27:53.098Z,64.97
2019-01-25T16:30:24.564Z,56.00
2019-01-25T16:32:55.914Z,52.93
2019-01-25T16:35:33.629Z,57.83
2019-01-25T16:38:02.310Z,56.93
2019-01-25T16:40:31.353Z,55.17
2019-01-25T16:43:01.420Z,55.10
2019-01-25T16:45:33.851Z,49.63
2019-01-25T16:48:02.862Z,39.07
2019-01-25T16:50:33.074Z,46.27
2019-01-25T16:53:02.985Z,49.40
2019-01-25T16:55:32.767Z,36.60
2019-01-25T16:58:01.696Z,46.80
2019-01-25T17:00:32.823Z,44.90
2019-01-25T17:03:01.745Z,37.60
2019-01-25T17:05:31.346Z,43.87
2019-01-25T17:08:01.448Z,42.03
2019-01-25T17:10:31.568Z,32.57
2019-01-25T17:13:01.415Z,41.60
2019-01-25T17:15:30.721Z,40.23
2019-01-25T17:18:00.236Z,24.70
2019-01-25T17:20:32.744Z,35.27
2019-01-25T17:23:01.726Z,36.27
2019-01-25T17:25:30.685Z,27.43
2019-01-25T17:28:00.837Z,39.80
2019-01-25T17:30:32.504Z,30.30
2019-01-25T17:33:02.674Z,34.77
2019-01-25T17:35:32.216Z,24.93
2019-01-25T17:38:01.498Z,33.00
2019-01-25T17:40:46.744Z,31.67
2019-01-25T17:43:19.528Z,32.47
2019-01-25T17:45:48.587Z,28.53
2019-01-25T17:48:17.516Z,24.83
2019-01-25T17:50:46.499Z,30.67
2019-01-25T17:53:18.825Z,33.17
2019-01-25T17:55:47.717Z,32.00
2019-01-25T17:58:16.744Z,33.80
2019-01-25T18:00:50.252Z,28.97
2019-01-25T18:03:19.296Z,33.07
2019-01-25T18:05:49.742Z,33.53
2019-01-25T18:08:24.689Z,37.63
2019-01-25T18:10:57.179Z,34.03
2019-01-25T18:13:54.576Z,37.77
2019-01-25T18:16:28.999Z,36.33
2019-01-25T18:19:00.242Z,32.23
2019-01-25T18:21:31.969Z,39.63
2019-01-25T18:24:03.426Z,30.63
2019-01-25T18:26:33.558Z,34.90
2019-01-25T18:29:14.857Z,36.30
2019-01-25T18:31:43.840Z,41.40
2019-01-25T18:34:13.037Z,39.10
2019-01-25T18:36:44.331Z,43.77
2019-01-25T18:39:13.512Z,40.03
2019-01-25T18:41:42.901Z,50.43
2019-01-25T18:44:11.853Z,60.37
2019-01-25T18:46:41.264Z,60.53
2019-01-25T18:49:16.045Z,78.13
2019-01-25T18:51:51.674Z,58.63
2019-01-25T18:54:20.650Z,67.63
2019-01-25T18:56:51.117Z,87.67
2019-01-25T18:59:20.509Z,81.07
2019-01-25T19:01:49.810Z,92.63
2019-01-25T19:04:21.792Z,89.37
2019-01-25T19:06:51.731Z,96.03
2019-01-25T19:09:20.802Z,92.83
2019-01-25T19:11:53.147Z,86.00
2019-01-25T19:14:22.925Z,96.17
2019-01-25T19:16:52.170Z,94.70
2019-01-25T19:19:22.283Z,88.80
2019-01-25T19:21:51.142Z,78.10
2019-01-25T19:24:20.077Z,78.97
2019-01-25T19:26:49.106Z,80.67
2019-01-25T19:29:20.490Z,88.73
2019-01-25T19:31:49.813Z,91.63
2019-01-25T19:34:19.534Z,73.33
2019-01-25T19:36:48.594Z,83.17
2019-01-25T19:39:17.659Z,79.07
2019-01-25T19:41:46.676Z,70.37
2019-01-25T19:44:16.189Z,75.03
2019-01-25T19:46:45.529Z,82.00
2019-01-25T19:49:14.550Z,75.03
2019-01-25T19:51:43.941Z,73.00
2019-01-25T19:54:14.857Z,64.03
2019-01-25T19:56:44.276Z,59.43
2019-01-25T19:59:13.607Z,61.70
2019-01-25T20:01:42.961Z,57.27
2019-01-25T20:04:15.449Z,53.03
2019-01-25T20:06:44.583Z,51.03
2019-01-25T20:09:14.664Z,44.30
2019-01-25T20:11:43.751Z,44.83
2019-01-25T20:14:13.165Z,38.93
2019-01-25T20:16:45.261Z,44.97
2019-01-25T20:19:15.447Z,33.70
2019-01-25T20:21:44.795Z,34.93
2019-01-25T20:24:13.842Z,32.73
2019-01-25T20:26:43.795Z,31.63
2019-01-25T20:29:13.067Z,30.20
2019-01-25T20:31:42.293Z,30.30
2019-01-25T20:34:11.544Z,30.40
2019-01-25T20:36:41.069Z,26.80
2019-01-25T20:39:11.947Z,31.53
2019-01-25T20:41:41.800Z,32.10
2019-01-25T20:44:14.170Z,26.70
2019-01-25T20:46:43.528Z,24.53
2019-01-25T20:49:13.859Z,24.03
2019-01-25T20:51:44.708Z,23.47
2019-01-25T20:54:14.012Z,26.63
2019-01-25T20:56:44.964Z,27.60
2019-01-25T20:59:15.969Z,20.37
2019-01-25T21:01:45.010Z,26.07
2019-01-25T21:04:14.714Z,23.10
2019-01-25T21:06:43.770Z,21.37
2019-01-25T21:09:15.690Z,27.67
2019-01-25T21:11:47.895Z,25.37
2019-01-25T21:14:17.283Z,23.77
2019-01-25T21:16:46.725Z,27.97
2019-01-25T21:19:17.063Z,27.80
2019-01-25T21:21:48.649Z,22.43
2019-01-25T21:24:17.975Z,19.83
2019-01-25T21:26:47.424Z,22.37
2019-01-25T21:29:16.675Z,21.90
2019-01-25T21:31:45.898Z,17.83
2019-01-25T21:34:15.803Z,24.07
2019-01-25T21:36:45.211Z,32.60
2019-01-25T21:39:16.913Z,20.77
2019-01-25T21:41:49.068Z,27.37
2019-01-25T21:44:18.228Z,25.90
2019-01-25T21:46:50.651Z,24.23
2019-01-25T21:49:20.112Z,20.17
2019-01-25T21:51:50.904Z,20.67
2019-01-25T21:54:23.706Z,24.40
2019-01-25T21:56:54.167Z,22.00
2019-01-25T21:59:23.919Z,21.73
2019-01-25T22:01:53.547Z,21.83
2019-01-25T22:04:23.520Z,21.00
2019-01-25T22:06:53.948Z,21.70
2019-01-25T22:09:23.421Z,21.73
2019-01-25T22:11:53.424Z,27.10
2019-01-25T22:14:23.674Z,23.70
2019-01-25T22:16:52.981Z,22.67
2019-01-25T22:19:22.112Z,27.53
2019-01-25T22:21:51.161Z,21.93
2019-01-25T22:24:20.288Z,27.30
2019-01-25T22:26:52.792Z,26.50
2019-01-25T22:29:23.118Z,24.23
2019-01-25T22:31:52.438Z,23.43
2019-01-25T22:34:21.828Z,20.63
2019-01-25T22:36:51.784Z,23.77
2019-01-25T22:39:20.867Z,20.67
2019-01-25T22:41:50.239Z,21.27
2019-01-25T22:44:19.384Z,20.83
2019-01-25T22:46:49.209Z,27.60
2019-01-25T22:49:18.691Z,23.47
2019-01-25T22:51:47.705Z,19.23
2019-01-25T22:54:17.410Z,24.17
2019-01-25T22:56:46.431Z,22.30
2019-01-25T22:59:15.886Z,24.47
2019-01-25T23:01:45.790Z,20.77
2019-01-25T23:04:43.956Z,24.77
2019-01-25T23:07:22.896Z,23.10
2019-01-25T23:09:57.195Z,24.90
2019-01-25T23:12:26.222Z,22.53
2019-01-25T23:14:55.234Z,24.50
2019-01-25T23:17:24.668Z,22.80
2019-01-25T23:19:53.943Z,26.70
2019-01-25T23:22:24.615Z,22.47
2019-01-25T23:27:28.540Z,26.57
2019-01-25T23:29:57.550Z,26.10
2019-01-25T23:32:27.161Z,24.07
2019-01-25T23:34:56.486Z,21.70
2019-01-25T23:37:25.596Z,26.50
2019-01-25T23:39:54.584Z,23.77
2019-01-25T23:42:23.792Z,23.63
2019-01-25T23:44:52.756Z,21.97
2019-01-25T23:47:21.646Z,22.87
2019-01-25T23:49:51.044Z,19.43
2019-01-25T23:52:21.120Z,22.73
2019-01-25T23:54:51.184Z,19.17
2019-01-25T23:57:23.162Z,21.60
2019-01-25T23:59:52.355Z,24.80
